sensor_id;sensor_type;location;lat;lon;timestamp;P1;durP1;ratioP1;P2;durP2;ratioP2
49738;SDS011;53662;50.114;8.626;2022-10-16T00:00:17;5.45;;;1.77;;
49738;SDS011;53662;50.114;8.626;2022-10-16T00:02:43;3.55;;;1.63;;
49738;SDS011;53662;50.114;8.626;2022-10-16T00:05:09;2.05;;;1.10;;
49738;SDS011;53662;50.114;8.626;2022-10-16T00:07:35;4.80;;;1.52;;
49738;SDS011;53662;50.114;8.626;2022-10-16T00:10:01;1.17;;;1.17;;
49738;SDS011;53662;50.114;8.626;2022-10-16T00:12:27;3.90;;;1.40;;
49738;SDS011;53662;50.114;8.626;2022-10-16T00:14:53;1.48;;;1.38;;
49738;SDS011;53662;50.114;8.626;2022-10-16T00:17:19;5.60;;;1.48;;
49738;SDS011;53662;50.114;8.626;2022-10-16T00:19:45;2.38;;;1.70;;
49738;SDS011;53662;50.114;8.626;2022-10-16T00:22:11;1.88;;;1.77;;
49738;SDS011;53662;50.114;8.626;2022-10-16T00:24:37;6.30;;;1.63;;
49738;SDS011;53662;50.114;8.626;2022-10-16T00:27:03;5.65;;;1.95;;
49738;SDS011;53662;50.114;8.626;2022-10-16T00:29:29;4.35;;;2.10;;
49738;SDS011;53662;50.114;8.626;2022-10-16T00:31:55;2.47;;;2.10;;
49738;SDS011;53662;50.114;8.626;2022-10-16T00:34:21;2.53;;;2.40;;
49738;SDS011;53662;50.114;8.626;2022-10-16T00:36:47;3.53;;;2.45;;
49738;SDS011;53662;50.114;8.626;2022-10-16T00:39:13;4.55;;;2.40;;
49738;SDS011;53662;50.114;8.626;2022-10-16T00:41:39;5.53;;;2.10;;
49738;SDS011;53662;50.114;8.626;2022-10-16T00:44:42;3.75;;;2.05;;
49738;SDS011;53662;50.114;8.626;2022-10-16T00:46:51;5.13;;;2.38;;
49738;SDS011;53662;50.114;8.626;2022-10-16T00:49:18;3.33;;;2.72;;
49738;SDS011;53662;50.114;8.626;2022-10-16T00:51:45;3.17;;;2.47;;
49738;SDS011;53662;50.114;8.626;2022-10-16T00:54:16;3.15;;;2.95;;
49738;SDS011;53662;50.114;8.626;2022-10-16T00:56:43;4.35;;;3.28;;
49738;SDS011;53662;50.114;8.626;2022-10-16T00:59:14;3.58;;;3.28;;
49738;SDS011;53662;50.114;8.626;2022-10-16T01:01:40;8.55;;;3.35;;
49738;SDS011;53662;50.114;8.626;2022-10-16T01:04:06;5.50;;;3.22;;
49738;SDS011;53662;50.114;8.626;2022-10-16T01:06:47;5.25;;;3.05;;
49738;SDS011;53662;50.114;8.626;2022-10-16T01:09:17;3.55;;;3.30;;
49738;SDS011;53662;50.114;8.626;2022-10-16T01:12:01;7.70;;;3.35;;
49738;SDS011;53662;50.114;8.626;2022-10-16T01:14:37;3.95;;;2.97;;
49738;SDS011;53662;50.114;8.626;2022-10-16T01:17:06;7.07;;;3.08;;
49738;SDS011;53662;50.114;8.626;2022-10-16T01:22:19;3.35;;;2.88;;
49738;SDS011;53662;50.114;8.626;2022-10-16T01:24:49;6.22;;;2.90;;
49738;SDS011;53662;50.114;8.626;2022-10-16T01:27:27;6.57;;;3.03;;
49738;SDS011;53662;50.114;8.626;2022-10-16T01:30:01;5.50;;;3.20;;
49738;SDS011;53662;50.114;8.626;2022-10-16T01:32:36;3.90;;;2.72;;
49738;SDS011;53662;50.114;8.626;2022-10-16T01:35:04;4.70;;;2.70;;
49738;SDS011;53662;50.114;8.626;2022-10-16T01:37:34;3.15;;;2.90;;
49738;SDS011;53662;50.114;8.626;2022-10-16T01:40:03;3.67;;;2.42;;
49738;SDS011;53662;50.114;8.626;2022-10-16T01:42:33;3.90;;;3.15;;
49738;SDS011;53662;50.114;8.626;2022-10-16T01:45:00;2.22;;;2.13;;
49738;SDS011;53662;50.114;8.626;2022-10-16T01:47:28;5.57;;;1.95;;
49738;SDS011;53662;50.114;8.626;2022-10-16T01:49:55;3.30;;;2.28;;
49738;SDS011;53662;50.114;8.626;2022-10-16T01:52:23;2.88;;;2.33;;
49738;SDS011;53662;50.114;8.626;2022-10-16T01:54:52;3.03;;;2.30;;
49738;SDS011;53662;50.114;8.626;2022-10-16T01:57:19;4.28;;;2.15;;
49738;SDS011;53662;50.114;8.626;2022-10-16T01:59:47;3.72;;;2.42;;
49738;SDS011;53662;50.114;8.626;2022-10-16T02:02:14;2.72;;;2.15;;
49738;SDS011;53662;50.114;8.626;2022-10-16T02:04:48;3.65;;;2.03;;
49738;SDS011;53662;50.114;8.626;2022-10-16T02:07:15;2.78;;;2.05;;
49738;SDS011;53662;50.114;8.626;2022-10-16T02:09:41;6.25;;;2.63;;
49738;SDS011;53662;50.114;8.626;2022-10-16T02:12:13;5.20;;;2.42;;
49738;SDS011;53662;50.114;8.626;2022-10-16T02:14:40;2.25;;;1.85;;
49738;SDS011;53662;50.114;8.626;2022-10-16T02:17:10;3.15;;;1.90;;
49738;SDS011;53662;50.114;8.626;2022-10-16T02:19:36;4.22;;;1.48;;
49738;SDS011;53662;50.114;8.626;2022-10-16T02:22:03;1.60;;;1.50;;
49738;SDS011;53662;50.114;8.626;2022-10-16T02:24:32;3.60;;;1.55;;
49738;SDS011;53662;50.114;8.626;2022-10-16T02:29:45;3.75;;;1.40;;
49738;SDS011;53662;50.114;8.626;2022-10-16T02:32:15;7.03;;;1.20;;
49738;SDS011;53662;50.114;8.626;2022-10-16T02:34:42;3.55;;;1.30;;
49738;SDS011;53662;50.114;8.626;2022-10-16T02:37:09;2.58;;;1.10;;
49738;SDS011;53662;50.114;8.626;2022-10-16T02:39:35;3.13;;;1.58;;
49738;SDS011;53662;50.114;8.626;2022-10-16T02:42:02;6.63;;;1.38;;
49738;SDS011;53662;50.114;8.626;2022-10-16T02:44:28;1.48;;;1.10;;
49738;SDS011;53662;50.114;8.626;2022-10-16T02:46:54;5.78;;;1.17;;
49738;SDS011;53662;50.114;8.626;2022-10-16T02:49:20;2.85;;;1.20;;
49738;SDS011;53662;50.114;8.626;2022-10-16T02:51:46;0.90;;;0.90;;
49738;SDS011;53662;50.114;8.626;2022-10-16T02:54:12;1.08;;;1.05;;
49738;SDS011;53662;50.114;8.626;2022-10-16T02:56:38;1.83;;;1.10;;
49738;SDS011;53662;50.114;8.626;2022-10-16T02:59:04;1.20;;;0.90;;
49738;SDS011;53662;50.114;8.626;2022-10-16T03:01:30;2.33;;;0.90;;
49738;SDS011;53662;50.114;8.626;2022-10-16T03:03:56;1.48;;;0.93;;
49738;SDS011;53662;50.114;8.626;2022-10-16T03:06:22;3.97;;;0.88;;
49738;SDS011;53662;50.114;8.626;2022-10-16T03:08:48;3.65;;;0.80;;
49738;SDS011;53662;50.114;8.626;2022-10-16T03:11:14;1.40;;;1.17;;
49738;SDS011;53662;50.114;8.626;2022-10-16T03:13:40;2.10;;;1.10;;
49738;SDS011;53662;50.114;8.626;2022-10-16T03:16:06;3.47;;;1.10;;
49738;SDS011;53662;50.114;8.626;2022-10-16T03:18:35;4.97;;;1.10;;
49738;SDS011;53662;50.114;8.626;2022-10-16T03:21:01;1.25;;;0.90;;
49738;SDS011;53662;50.114;8.626;2022-10-16T03:23:27;1.80;;;1.10;;
49738;SDS011;53662;50.114;8.626;2022-10-16T03:25:53;1.13;;;1.08;;
49738;SDS011;53662;50.114;8.626;2022-10-16T03:28:19;4.53;;;1.42;;
49738;SDS011;53662;50.114;8.626;2022-10-16T03:30:45;1.13;;;1.02;;
49738;SDS011;53662;50.114;8.626;2022-10-16T03:33:11;2.58;;;1.00;;
49738;SDS011;53662;50.114;8.626;2022-10-16T03:35:37;1.88;;;1.00;;
49738;SDS011;53662;50.114;8.626;2022-10-16T03:38:03;1.20;;;0.98;;
49738;SDS011;53662;50.114;8.626;2022-10-16T03:40:29;0.90;;;0.90;;
49738;SDS011;53662;50.114;8.626;2022-10-16T03:42:57;4.45;;;0.95;;
49738;SDS011;53662;50.114;8.626;2022-10-16T03:45:23;1.45;;;0.90;;
49738;SDS011;53662;50.114;8.626;2022-10-16T03:47:49;4.70;;;1.20;;
49738;SDS011;53662;50.114;8.626;2022-10-16T03:50:15;1.55;;;0.90;;
49738;SDS011;53662;50.114;8.626;2022-10-16T03:52:41;5.55;;;1.08;;
49738;SDS011;53662;50.114;8.626;2022-10-16T03:55:07;1.88;;;1.48;;
49738;SDS011;53662;50.114;8.626;2022-10-16T03:57:33;1.42;;;1.23;;
49738;SDS011;53662;50.114;8.626;2022-10-16T03:59:59;4.22;;;1.00;;
49738;SDS011;53662;50.114;8.626;2022-10-16T04:02:25;1.60;;;1.02;;
49738;SDS011;53662;50.114;8.626;2022-10-16T04:04:51;5.55;;;1.25;;
49738;SDS011;53662;50.114;8.626;2022-10-16T04:07:17;3.40;;;1.40;;
49738;SDS011;53662;50.114;8.626;2022-10-16T04:09:43;1.67;;;1.23;;
49738;SDS011;53662;50.114;8.626;2022-10-16T04:12:09;3.83;;;1.38;;
49738;SDS011;53662;50.114;8.626;2022-10-16T04:14:35;5.97;;;1.10;;
49738;SDS011;53662;50.114;8.626;2022-10-16T04:17:01;1.40;;;1.30;;
49738;SDS011;53662;50.114;8.626;2022-10-16T04:19:27;2.20;;;1.15;;
49738;SDS011;53662;50.114;8.626;2022-10-16T04:21:53;1.65;;;1.23;;
49738;SDS011;53662;50.114;8.626;2022-10-16T04:24:19;1.67;;;1.30;;
49738;SDS011;53662;50.114;8.626;2022-10-16T04:26:44;10.50;;;1.15;;
49738;SDS011;53662;50.114;8.626;2022-10-16T04:29:10;1.42;;;1.23;;
49738;SDS011;53662;50.114;8.626;2022-10-16T04:31:36;6.30;;;1.70;;
49738;SDS011;53662;50.114;8.626;2022-10-16T04:34:02;1.83;;;1.60;;
49738;SDS011;53662;50.114;8.626;2022-10-16T04:36:28;2.90;;;1.25;;
49738;SDS011;53662;50.114;8.626;2022-10-16T04:38:54;4.05;;;1.10;;
49738;SDS011;53662;50.114;8.626;2022-10-16T04:41:20;5.13;;;1.50;;
49738;SDS011;53662;50.114;8.626;2022-10-16T04:43:46;1.52;;;1.40;;
49738;SDS011;53662;50.114;8.626;2022-10-16T04:46:12;6.88;;;1.80;;
49738;SDS011;53662;50.114;8.626;2022-10-16T04:48:38;2.03;;;1.58;;
49738;SDS011;53662;50.114;8.626;2022-10-16T04:51:04;3.47;;;1.85;;
49738;SDS011;53662;50.114;8.626;2022-10-16T04:53:30;5.35;;;1.73;;
49738;SDS011;53662;50.114;8.626;2022-10-16T04:55:56;5.47;;;1.65;;
49738;SDS011;53662;50.114;8.626;2022-10-16T04:58:22;7.60;;;1.90;;
49738;SDS011;53662;50.114;8.626;2022-10-16T05:00:48;6.75;;;1.52;;
49738;SDS011;53662;50.114;8.626;2022-10-16T05:03:14;1.80;;;1.70;;
49738;SDS011;53662;50.114;8.626;2022-10-16T05:05:43;1.40;;;1.40;;
49738;SDS011;53662;50.114;8.626;2022-10-16T05:08:10;2.15;;;1.73;;
49738;SDS011;53662;50.114;8.626;2022-10-16T05:10:36;2.88;;;1.50;;
49738;SDS011;53662;50.114;8.626;2022-10-16T05:13:02;3.88;;;1.70;;
49738;SDS011;53662;50.114;8.626;2022-10-16T05:15:28;8.63;;;1.80;;
49738;SDS011;53662;50.114;8.626;2022-10-16T05:17:54;4.57;;;1.50;;
49738;SDS011;53662;50.114;8.626;2022-10-16T05:20:21;4.38;;;1.50;;
49738;SDS011;53662;50.114;8.626;2022-10-16T05:22:47;5.10;;;1.63;;
49738;SDS011;53662;50.114;8.626;2022-10-16T05:25:13;6.30;;;1.35;;
49738;SDS011;53662;50.114;8.626;2022-10-16T05:27:39;5.25;;;1.40;;
49738;SDS011;53662;50.114;8.626;2022-10-16T05:30:05;1.20;;;1.10;;
49738;SDS011;53662;50.114;8.626;2022-10-16T05:32:31;6.63;;;1.48;;
49738;SDS011;53662;50.114;8.626;2022-10-16T05:34:57;1.52;;;1.33;;
49738;SDS011;53662;50.114;8.626;2022-10-16T05:37:24;7.75;;;1.55;;
49738;SDS011;53662;50.114;8.626;2022-10-16T05:39:50;5.00;;;1.30;;
49738;SDS011;53662;50.114;8.626;2022-10-16T05:42:16;2.95;;;1.35;;
49738;SDS011;53662;50.114;8.626;2022-10-16T05:44:42;7.85;;;1.58;;
49738;SDS011;53662;50.114;8.626;2022-10-16T05:47:12;1.80;;;1.30;;
49738;SDS011;53662;50.114;8.626;2022-10-16T05:49:42;2.55;;;1.20;;
49738;SDS011;53662;50.114;8.626;2022-10-16T05:52:07;6.57;;;1.73;;
49738;SDS011;53662;50.114;8.626;2022-10-16T05:54:33;2.45;;;1.40;;
49738;SDS011;53662;50.114;8.626;2022-10-16T05:56:59;4.13;;;1.60;;
49738;SDS011;53662;50.114;8.626;2022-10-16T05:59:27;3.35;;;1.33;;
49738;SDS011;53662;50.114;8.626;2022-10-16T06:01:52;8.60;;;1.70;;
49738;SDS011;53662;50.114;8.626;2022-10-16T06:04:18;6.97;;;1.73;;
49738;SDS011;53662;50.114;8.626;2022-10-16T06:06:44;4.50;;;1.40;;
49738;SDS011;53662;50.114;8.626;2022-10-16T06:09:10;5.50;;;1.60;;
49738;SDS011;53662;50.114;8.626;2022-10-16T06:11:36;2.92;;;1.40;;
49738;SDS011;53662;50.114;8.626;2022-10-16T06:14:02;4.07;;;1.27;;
49738;SDS011;53662;50.114;8.626;2022-10-16T06:16:32;3.05;;;1.35;;
49738;SDS011;53662;50.114;8.626;2022-10-16T06:18:58;1.98;;;1.40;;
49738;SDS011;53662;50.114;8.626;2022-10-16T06:21:25;4.82;;;1.60;;
49738;SDS011;53662;50.114;8.626;2022-10-16T06:23:51;1.15;;;1.13;;
49738;SDS011;53662;50.114;8.626;2022-10-16T06:26:18;6.68;;;1.55;;
49738;SDS011;53662;50.114;8.626;2022-10-16T06:28:45;1.33;;;1.15;;
49738;SDS011;53662;50.114;8.626;2022-10-16T06:31:11;2.42;;;1.08;;
49738;SDS011;53662;50.114;8.626;2022-10-16T06:33:37;5.78;;;1.40;;
49738;SDS011;53662;50.114;8.626;2022-10-16T06:36:11;4.57;;;1.48;;
49738;SDS011;53662;50.114;8.626;2022-10-16T06:38:37;2.85;;;1.50;;
49738;SDS011;53662;50.114;8.626;2022-10-16T06:41:04;2.20;;;1.50;;
49738;SDS011;53662;50.114;8.626;2022-10-16T06:43:31;4.95;;;1.70;;
49738;SDS011;53662;50.114;8.626;2022-10-16T06:45:58;6.18;;;1.63;;
49738;SDS011;53662;50.114;8.626;2022-10-16T06:48:24;1.40;;;1.40;;
49738;SDS011;53662;50.114;8.626;2022-10-16T06:50:57;3.53;;;1.48;;
49738;SDS011;53662;50.114;8.626;2022-10-16T06:53:24;2.45;;;1.33;;
49738;SDS011;53662;50.114;8.626;2022-10-16T06:55:50;3.53;;;1.35;;
49738;SDS011;53662;50.114;8.626;2022-10-16T06:58:16;2.50;;;1.63;;
49738;SDS011;53662;50.114;8.626;2022-10-16T07:00:42;1.52;;;1.42;;
49738;SDS011;53662;50.114;8.626;2022-10-16T07:03:08;4.50;;;1.80;;
49738;SDS011;53662;50.114;8.626;2022-10-16T07:05:38;7.25;;;1.83;;
49738;SDS011;53662;50.114;8.626;2022-10-16T07:08:04;5.40;;;1.98;;
49738;SDS011;53662;50.114;8.626;2022-10-16T07:10:31;3.08;;;1.95;;
49738;SDS011;53662;50.114;8.626;2022-10-16T07:12:57;2.65;;;1.70;;
49738;SDS011;53662;50.114;8.626;2022-10-16T07:15:24;1.65;;;1.42;;
49738;SDS011;53662;50.114;8.626;2022-10-16T07:17:50;5.40;;;1.58;;
49738;SDS011;53662;50.114;8.626;2022-10-16T07:20:16;3.90;;;1.67;;
49738;SDS011;53662;50.114;8.626;2022-10-16T07:22:42;3.20;;;2.50;;
49738;SDS011;53662;50.114;8.626;2022-10-16T07:25:08;2.95;;;2.70;;
49738;SDS011;53662;50.114;8.626;2022-10-16T07:27:34;4.85;;;2.78;;
49738;SDS011;53662;50.114;8.626;2022-10-16T07:30:00;3.38;;;2.70;;
49738;SDS011;53662;50.114;8.626;2022-10-16T07:32:26;3.60;;;2.40;;
49738;SDS011;53662;50.114;8.626;2022-10-16T07:34:52;4.85;;;2.25;;
49738;SDS011;53662;50.114;8.626;2022-10-16T07:37:18;3.88;;;2.28;;
49738;SDS011;53662;50.114;8.626;2022-10-16T07:39:44;8.13;;;2.58;;
49738;SDS011;53662;50.114;8.626;2022-10-16T07:42:10;4.90;;;3.00;;
49738;SDS011;53662;50.114;8.626;2022-10-16T07:44:36;3.65;;;3.25;;
49738;SDS011;53662;50.114;8.626;2022-10-16T07:47:02;7.70;;;2.88;;
49738;SDS011;53662;50.114;8.626;2022-10-16T07:49:28;4.68;;;2.45;;
49738;SDS011;53662;50.114;8.626;2022-10-16T07:51:54;8.75;;;3.00;;
49738;SDS011;53662;50.114;8.626;2022-10-16T07:54:20;3.72;;;2.92;;
49738;SDS011;53662;50.114;8.626;2022-10-16T07:56:46;6.35;;;3.35;;
49738;SDS011;53662;50.114;8.626;2022-10-16T07:59:12;5.45;;;3.20;;
49738;SDS011;53662;50.114;8.626;2022-10-16T08:01:38;3.42;;;3.20;;
49738;SDS011;53662;50.114;8.626;2022-10-16T08:04:04;5.32;;;3.20;;
49738;SDS011;53662;50.114;8.626;2022-10-16T08:06:34;3.65;;;3.10;;
49738;SDS011;53662;50.114;8.626;2022-10-16T08:09:00;5.57;;;3.58;;
49738;SDS011;53662;50.114;8.626;2022-10-16T08:11:26;3.40;;;3.10;;
49738;SDS011;53662;50.114;8.626;2022-10-16T08:13:52;4.25;;;2.80;;
49738;SDS011;53662;50.114;8.626;2022-10-16T08:16:18;3.00;;;2.80;;
49738;SDS011;53662;50.114;8.626;2022-10-16T08:18:44;9.07;;;3.50;;
49738;SDS011;53662;50.114;8.626;2022-10-16T08:21:13;4.32;;;3.17;;
49738;SDS011;53662;50.114;8.626;2022-10-16T08:23:39;9.70;;;3.70;;
49738;SDS011;53662;50.114;8.626;2022-10-16T08:26:06;9.32;;;3.35;;
49738;SDS011;53662;50.114;8.626;2022-10-16T08:28:32;7.78;;;3.17;;
49738;SDS011;53662;50.114;8.626;2022-10-16T08:31:08;5.38;;;1.95;;
49738;SDS011;53662;50.114;8.626;2022-10-16T08:33:34;3.97;;;2.33;;
49738;SDS011;53662;50.114;8.626;2022-10-16T08:36:01;4.35;;;1.90;;
49738;SDS011;53662;50.114;8.626;2022-10-16T08:38:27;4.60;;;1.98;;
49738;SDS011;53662;50.114;8.626;2022-10-16T08:40:54;2.88;;;2.40;;
49738;SDS011;53662;50.114;8.626;2022-10-16T08:43:26;3.30;;;2.75;;
49738;SDS011;53662;50.114;8.626;2022-10-16T08:45:59;2.70;;;2.50;;
49738;SDS011;53662;50.114;8.626;2022-10-16T08:48:36;8.85;;;3.28;;
49738;SDS011;53662;50.114;8.626;2022-10-16T08:51:04;4.18;;;3.00;;
49738;SDS011;53662;50.114;8.626;2022-10-16T08:53:33;7.15;;;3.45;;
49738;SDS011;53662;50.114;8.626;2022-10-16T08:56:02;11.55;;;3.45;;
49738;SDS011;53662;50.114;8.626;2022-10-16T08:58:29;3.70;;;3.50;;
49738;SDS011;53662;50.114;8.626;2022-10-16T09:01:00;5.45;;;4.30;;
49738;SDS011;53662;50.114;8.626;2022-10-16T09:08:42;5.78;;;3.70;;
49738;SDS011;53662;50.114;8.626;2022-10-16T09:13:50;4.28;;;3.85;;
49738;SDS011;53662;50.114;8.626;2022-10-16T09:18:50;7.80;;;4.82;;
49738;SDS011;53662;50.114;8.626;2022-10-16T09:21:23;5.00;;;4.10;;
49738;SDS011;53662;50.114;8.626;2022-10-16T09:23:49;5.93;;;4.20;;
49738;SDS011;53662;50.114;8.626;2022-10-16T09:26:16;9.07;;;6.65;;
49738;SDS011;53662;50.114;8.626;2022-10-16T09:28:42;5.32;;;4.93;;
49738;SDS011;53662;50.114;8.626;2022-10-16T09:31:18;5.70;;;4.90;;
49738;SDS011;53662;50.114;8.626;2022-10-16T09:33:46;5.18;;;4.68;;
49738;SDS011;53662;50.114;8.626;2022-10-16T09:36:13;16.13;;;9.45;;
49738;SDS011;53662;50.114;8.626;2022-10-16T09:38:39;12.40;;;8.40;;
49738;SDS011;53662;50.114;8.626;2022-10-16T09:41:19;9.10;;;6.13;;
49738;SDS011;53662;50.114;8.626;2022-10-16T09:46:27;11.13;;;6.72;;
49738;SDS011;53662;50.114;8.626;2022-10-16T09:48:55;14.55;;;7.15;;
49738;SDS011;53662;50.114;8.626;2022-10-16T09:51:23;20.48;;;7.35;;
49738;SDS011;53662;50.114;8.626;2022-10-16T09:53:53;10.90;;;6.95;;
49738;SDS011;53662;50.114;8.626;2022-10-16T09:56:29;15.02;;;7.78;;
49738;SDS011;53662;50.114;8.626;2022-10-16T09:58:58;10.65;;;7.78;;
49738;SDS011;53662;50.114;8.626;2022-10-16T10:01:27;8.63;;;7.05;;
49738;SDS011;53662;50.114;8.626;2022-10-16T10:03:56;9.63;;;7.95;;
49738;SDS011;53662;50.114;8.626;2022-10-16T10:06:31;11.68;;;7.93;;
49738;SDS011;53662;50.114;8.626;2022-10-16T10:08:59;13.20;;;11.05;;
49738;SDS011;53662;50.114;8.626;2022-10-16T10:11:36;12.05;;;8.90;;
49738;SDS011;53662;50.114;8.626;2022-10-16T10:14:05;12.13;;;7.00;;
49738;SDS011;53662;50.114;8.626;2022-10-16T10:16:32;8.40;;;5.03;;
49738;SDS011;53662;50.114;8.626;2022-10-16T10:19:00;4.00;;;3.47;;
49738;SDS011;53662;50.114;8.626;2022-10-16T10:21:26;3.08;;;2.83;;
49738;SDS011;53662;50.114;8.626;2022-10-16T10:23:55;5.00;;;3.00;;
49738;SDS011;53662;50.114;8.626;2022-10-16T10:26:24;3.25;;;3.03;;
49738;SDS011;53662;50.114;8.626;2022-10-16T10:28:55;3.80;;;3.50;;
49738;SDS011;53662;50.114;8.626;2022-10-16T10:31:46;3.28;;;3.08;;
49738;SDS011;53662;50.114;8.626;2022-10-16T10:39:48;3.00;;;2.80;;
49738;SDS011;53662;50.114;8.626;2022-10-16T10:42:36;4.72;;;2.35;;
49738;SDS011;53662;50.114;8.626;2022-10-16T10:45:18;2.50;;;2.30;;
49738;SDS011;53662;50.114;8.626;2022-10-16T10:47:58;7.20;;;2.65;;
49738;SDS011;53662;50.114;8.626;2022-10-16T10:56:25;4.25;;;3.30;;
49738;SDS011;53662;50.114;8.626;2022-10-16T11:00:58;4.15;;;3.85;;
49738;SDS011;53662;50.114;8.626;2022-10-16T11:05:56;5.85;;;5.45;;
49738;SDS011;53662;50.114;8.626;2022-10-16T11:08:29;5.53;;;5.15;;
49738;SDS011;53662;50.114;8.626;2022-10-16T11:10:58;6.38;;;5.82;;
49738;SDS011;53662;50.114;8.626;2022-10-16T11:13:28;8.82;;;6.97;;
49738;SDS011;53662;50.114;8.626;2022-10-16T11:16:01;9.73;;;7.63;;
49738;SDS011;53662;50.114;8.626;2022-10-16T11:20:56;10.48;;;9.00;;
49738;SDS011;53662;50.114;8.626;2022-10-16T11:23:38;8.95;;;7.90;;
49738;SDS011;53662;50.114;8.626;2022-10-16T11:26:10;8.90;;;8.05;;
49738;SDS011;53662;50.114;8.626;2022-10-16T11:31:07;8.57;;;7.78;;
49738;SDS011;53662;50.114;8.626;2022-10-16T11:38:43;8.43;;;7.32;;
49738;SDS011;53662;50.114;8.626;2022-10-16T11:41:55;12.35;;;7.35;;
49738;SDS011;53662;50.114;8.626;2022-10-16T11:44:16;15.05;;;6.70;;
49738;SDS011;53662;50.114;8.626;2022-10-16T11:49:31;7.00;;;6.22;;
49738;SDS011;53662;50.114;8.626;2022-10-16T11:54:32;7.25;;;6.60;;
49738;SDS011;53662;50.114;8.626;2022-10-16T11:57:02;6.55;;;5.95;;
49738;SDS011;53662;50.114;8.626;2022-10-16T11:59:42;6.40;;;5.80;;
49738;SDS011;53662;50.114;8.626;2022-10-16T12:02:25;11.48;;;5.72;;
49738;SDS011;53662;50.114;8.626;2022-10-16T12:05:39;5.38;;;4.88;;
49738;SDS011;53662;50.114;8.626;2022-10-16T12:07:44;4.68;;;4.28;;
49738;SDS011;53662;50.114;8.626;2022-10-16T12:10:18;3.85;;;3.65;;
49738;SDS011;53662;50.114;8.626;2022-10-16T12:12:45;3.17;;;3.08;;
49738;SDS011;53662;50.114;8.626;2022-10-16T12:15:25;3.22;;;2.85;;
49738;SDS011;53662;50.114;8.626;2022-10-16T12:17:51;3.28;;;2.25;;
49738;SDS011;53662;50.114;8.626;2022-10-16T12:22:52;3.03;;;2.38;;
49738;SDS011;53662;50.114;8.626;2022-10-16T12:25:23;2.50;;;2.40;;
49738;SDS011;53662;50.114;8.626;2022-10-16T12:27:53;2.33;;;2.23;;
49738;SDS011;53662;50.114;8.626;2022-10-16T12:30:21;2.13;;;1.85;;
49738;SDS011;53662;50.114;8.626;2022-10-16T12:32:53;1.90;;;1.83;;
49738;SDS011;53662;50.114;8.626;2022-10-16T12:37:45;5.07;;;2.80;;
49738;SDS011;53662;50.114;8.626;2022-10-16T12:40:12;2.67;;;2.47;;
49738;SDS011;53662;50.114;8.626;2022-10-16T12:42:39;10.02;;;3.28;;
49738;SDS011;53662;50.114;8.626;2022-10-16T12:45:24;2.90;;;2.70;;
49738;SDS011;53662;50.114;8.626;2022-10-16T12:47:52;5.03;;;2.83;;
49738;SDS011;53662;50.114;8.626;2022-10-16T12:50:37;2.28;;;2.08;;
49738;SDS011;53662;50.114;8.626;2022-10-16T12:53:19;2.20;;;2.00;;
49738;SDS011;53662;50.114;8.626;2022-10-16T12:56:03;5.03;;;1.98;;
49738;SDS011;53662;50.114;8.626;2022-10-16T13:01:21;2.38;;;1.70;;
49738;SDS011;53662;50.114;8.626;2022-10-16T13:04:10;1.65;;;1.63;;
49738;SDS011;53662;50.114;8.626;2022-10-16T13:06:42;1.60;;;1.50;;
49738;SDS011;53662;50.114;8.626;2022-10-16T13:12:00;1.38;;;1.15;;
49738;SDS011;53662;50.114;8.626;2022-10-16T13:14:35;2.42;;;1.35;;
49738;SDS011;53662;50.114;8.626;2022-10-16T13:19:48;1.88;;;1.75;;
49738;SDS011;53662;50.114;8.626;2022-10-16T13:27:14;1.77;;;1.48;;
49738;SDS011;53662;50.114;8.626;2022-10-16T13:29:43;1.55;;;1.40;;
49738;SDS011;53662;50.114;8.626;2022-10-16T13:32:09;1.42;;;1.42;;
49738;SDS011;53662;50.114;8.626;2022-10-16T13:34:45;1.80;;;1.48;;
49738;SDS011;53662;50.114;8.626;2022-10-16T13:37:18;1.60;;;1.48;;
49738;SDS011;53662;50.114;8.626;2022-10-16T13:39:44;4.20;;;1.77;;
49738;SDS011;53662;50.114;8.626;2022-10-16T13:42:13;1.33;;;1.30;;
49738;SDS011;53662;50.114;8.626;2022-10-16T13:44:41;1.60;;;1.50;;
49738;SDS011;53662;50.114;8.626;2022-10-16T13:50:04;3.35;;;1.30;;
49738;SDS011;53662;50.114;8.626;2022-10-16T13:52:31;1.45;;;1.35;;
49738;SDS011;53662;50.114;8.626;2022-10-16T13:54:57;1.10;;;1.00;;
49738;SDS011;53662;50.114;8.626;2022-10-16T13:57:24;1.33;;;1.33;;
49738;SDS011;53662;50.114;8.626;2022-10-16T13:59:50;1.40;;;1.30;;
49738;SDS011;53662;50.114;8.626;2022-10-16T14:02:30;1.70;;;1.60;;
49738;SDS011;53662;50.114;8.626;2022-10-16T14:04:59;1.30;;;1.20;;
49738;SDS011;53662;50.114;8.626;2022-10-16T14:07:27;3.25;;;1.40;;
49738;SDS011;53662;50.114;8.626;2022-10-16T14:09:53;3.08;;;1.70;;
49738;SDS011;53662;50.114;8.626;2022-10-16T14:12:20;7.05;;;1.80;;
49738;SDS011;53662;50.114;8.626;2022-10-16T14:14:47;4.20;;;2.15;;
49738;SDS011;53662;50.114;8.626;2022-10-16T14:17:24;11.13;;;2.08;;
49738;SDS011;53662;50.114;8.626;2022-10-16T14:19:52;1.90;;;1.80;;
49738;SDS011;53662;50.114;8.626;2022-10-16T14:22:32;1.88;;;1.77;;
49738;SDS011;53662;50.114;8.626;2022-10-16T14:24:58;2.25;;;1.42;;
49738;SDS011;53662;50.114;8.626;2022-10-16T14:27:31;3.65;;;1.50;;
49738;SDS011;53662;50.114;8.626;2022-10-16T14:30:14;5.88;;;2.03;;
49738;SDS011;53662;50.114;8.626;2022-10-16T14:32:41;9.30;;;1.90;;
49738;SDS011;53662;50.114;8.626;2022-10-16T14:35:28;1.92;;;1.73;;
49738;SDS011;53662;50.114;8.626;2022-10-16T14:37:54;5.35;;;3.88;;
49738;SDS011;53662;50.114;8.626;2022-10-16T14:40:23;2.40;;;2.22;;
49738;SDS011;53662;50.114;8.626;2022-10-16T14:42:49;3.17;;;2.03;;
49738;SDS011;53662;50.114;8.626;2022-10-16T14:45:18;4.82;;;1.95;;
49738;SDS011;53662;50.114;8.626;2022-10-16T14:47:48;1.85;;;1.70;;
49738;SDS011;53662;50.114;8.626;2022-10-16T14:50:15;5.30;;;2.00;;
49738;SDS011;53662;50.114;8.626;2022-10-16T14:52:41;7.47;;;2.10;;
49738;SDS011;53662;50.114;8.626;2022-10-16T14:55:08;5.07;;;1.73;;
49738;SDS011;53662;50.114;8.626;2022-10-16T14:57:34;5.57;;;1.65;;
49738;SDS011;53662;50.114;8.626;2022-10-16T15:00:02;7.40;;;1.80;;
49738;SDS011;53662;50.114;8.626;2022-10-16T15:02:32;3.05;;;1.77;;
49738;SDS011;53662;50.114;8.626;2022-10-16T15:05:20;3.03;;;1.30;;
49738;SDS011;53662;50.114;8.626;2022-10-16T15:07:45;1.88;;;1.40;;
49738;SDS011;53662;50.114;8.626;2022-10-16T15:10:12;4.75;;;1.73;;
49738;SDS011;53662;50.114;8.626;2022-10-16T15:12:38;1.45;;;1.35;;
49738;SDS011;53662;50.114;8.626;2022-10-16T15:17:43;1.55;;;1.42;;
49738;SDS011;53662;50.114;8.626;2022-10-16T15:20:09;3.65;;;1.60;;
49738;SDS011;53662;50.114;8.626;2022-10-16T15:22:34;1.77;;;1.67;;
49738;SDS011;53662;50.114;8.626;2022-10-16T15:25:00;2.05;;;1.75;;
49738;SDS011;53662;50.114;8.626;2022-10-16T15:27:26;2.30;;;1.77;;
49738;SDS011;53662;50.114;8.626;2022-10-16T15:29:52;10.10;;;1.80;;
49738;SDS011;53662;50.114;8.626;2022-10-16T15:32:18;6.60;;;1.38;;
49738;SDS011;53662;50.114;8.626;2022-10-16T15:34:44;1.75;;;1.65;;
49738;SDS011;53662;50.114;8.626;2022-10-16T15:37:10;2.85;;;1.60;;
49738;SDS011;53662;50.114;8.626;2022-10-16T15:39:38;8.70;;;2.10;;
49738;SDS011;53662;50.114;8.626;2022-10-16T15:42:04;5.35;;;1.65;;
49738;SDS011;53662;50.114;8.626;2022-10-16T15:44:30;7.47;;;1.83;;
49738;SDS011;53662;50.114;8.626;2022-10-16T15:46:56;27.45;;;2.83;;
49738;SDS011;53662;50.114;8.626;2022-10-16T15:49:22;29.25;;;2.63;;
49738;SDS011;53662;50.114;8.626;2022-10-16T15:51:48;20.05;;;2.03;;
49738;SDS011;53662;50.114;8.626;2022-10-16T15:54:14;16.60;;;2.00;;
49738;SDS011;53662;50.114;8.626;2022-10-16T15:56:40;13.70;;;2.13;;
49738;SDS011;53662;50.114;8.626;2022-10-16T15:59:06;6.47;;;1.95;;
49738;SDS011;53662;50.114;8.626;2022-10-16T16:01:35;8.40;;;1.90;;
49738;SDS011;53662;50.114;8.626;2022-10-16T16:04:02;3.72;;;2.00;;
49738;SDS011;53662;50.114;8.626;2022-10-16T16:06:29;17.95;;;2.05;;